Time;durP1;ratioP1;P1;durP2;ratioP2;P2;SDS_P1;SDS_P2;PMS_P1;PMS_P2;Temp;Humidity;BMP_temperature;BMP_pressure;BME280_temperature;BME280_humidity;BME280_pressure;Samples;Min_cycle;Max_cycle;Signal;HPM_P1;HPM_P2
2022/05/25 00:01:17;;;;;;;9.10;3.63;;;28.10;90.40;;;;;;4984089;28;20026;-55
2022/05/25 00:03:44;;;;;;;9.40;3.40;;;28.10;90.40;;;;;;4983800;28;20022;-51
2022/05/25 00:06:11;;;;;;;7.30;2.83;;;28.10;90.30;;;;;;4984068;28;20023;-48
2022/05/25 00:08:42;;;;;;;8.68;3.10;;;28.10;90.30;;;;;;4984026;28;20011;-51
2022/05/25 00:11:09;;;;;;;8.10;3.33;;;28.10;90.20;;;;;;4983807;28;20086;-48
2022/05/25 00:13:37;;;;;;;7.40;2.75;;;28.10;90.20;;;;;;4983769;28;20046;-48
2022/05/25 00:16:05;;;;;;;9.77;3.35;;;28.10;90.20;;;;;;4984272;28;20053;-51
2022/05/25 00:18:31;;;;;;;5.15;2.55;;;28.10;90.20;;;;;;4983660;28;20030;-54
2022/05/25 00:20:59;;;;;;;6.68;2.72;;;28.10;90.20;;;;;;4984237;28;20029;-48
2022/05/25 00:23:25;;;;;;;7.28;2.85;;;28.10;90.20;;;;;;4983744;28;20043;-49
2022/05/25 00:26:00;;;;;;;7.55;3.28;;;28.10;90.10;;;;;;4983990;28;20018;-53
2022/05/25 00:28:32;;;;;;;6.85;2.45;;;28.10;90.00;;;;;;4983994;28;20031;-53
2022/05/25 00:31:04;;;;;;;7.00;2.60;;;28.10;90.00;;;;;;4984243;28;20015;-52
2022/05/25 00:33:31;;;;;;;10.20;2.80;;;28.00;90.00;;;;;;4983546;28;20027;-49
2022/05/25 00:35:57;;;;;;;9.50;2.30;;;28.00;89.70;;;;;;4983121;28;20034;-48
2022/05/25 00:38:24;;;;;;;8.27;2.47;;;27.90;90.00;;;;;;4983384;28;20031;-48
2022/05/25 00:40:50;;;;;;;5.22;2.20;;;27.80;90.20;;;;;;4985530;28;21532;-47
2022/05/25 00:43:17;;;;;;;4.68;2.13;;;27.70;90.10;;;;;;5002004;28;20076;-49
2022/05/25 00:45:49;;;;;;;6.45;2.38;;;27.70;90.10;;;;;;5002886;28;20022;-47
2022/05/25 00:48:43;;;;;;;4.53;2.22;;;27.70;90.30;;;;;;5002658;28;20026;-45
2022/05/25 00:51:14;;;;;;;7.93;2.72;;;27.60;90.20;;;;;;5000585;28;20019;-52
2022/05/25 00:54:03;;;;;;;5.97;2.53;;;27.50;90.50;;;;;;5002587;28;20257;-54
2022/05/25 00:56:33;;;;;;;9.32;2.58;;;27.40;90.70;;;;;;5001856;28;20065;-51
2022/05/25 00:59:08;;;;;;;8.32;2.67;;;27.40;90.70;;;;;;5002461;28;20204;-47
2022/05/25 01:01:35;;;;;;;8.63;2.50;;;27.30;90.70;;;;;;5010177;28;20018;-50
2022/05/25 01:04:02;;;;;;;10.05;2.80;;;27.30;90.60;;;;;;5011967;28;20236;-48
2022/05/25 01:06:32;;;;;;;8.93;2.90;;;27.40;90.60;;;;;;5014522;28;20034;-51
2022/05/25 01:09:11;;;;;;;9.00;2.85;;;27.40;90.50;;;;;;5089817;28;20359;-46
2022/05/25 01:12:01;;;;;;;8.30;2.97;;;27.40;90.50;;;;;;5007929;28;20175;-52
2022/05/25 01:14:38;;;;;;;10.40;2.80;;;27.40;90.60;;;;;;5000649;28;20268;-45
2022/05/25 01:17:21;;;;;;;12.82;3.10;;;27.30;90.60;;;;;;5079460;28;20563;-50
2022/05/25 01:19:52;;;;;;;41.83;7.05;;;27.30;90.80;;;;;;5016242;28;20021;-50
2022/05/25 01:22:21;;;;;;;92.60;12.05;;;27.30;90.70;;;;;;5017368;28;20030;-50
2022/05/25 01:25:20;;;;;;;109.55;13.75;;;27.30;90.80;;;;;;5019699;28;20026;-47
2022/05/25 01:27:49;;;;;;;39.17;7.35;;;27.40;90.60;;;;;;5067451;28;20030;-46
2022/05/25 01:30:27;;;;;;;24.50;5.57;;;27.40;90.60;;;;;;5001835;28;20015;-51
2022/05/25 01:33:12;;;;;;;19.48;5.57;;;27.50;90.50;;;;;;4997817;28;20018;-58
2022/05/25 01:36:03;;;;;;;12.65;3.80;;;27.50;90.50;;;;;;5064857;28;20110;-53
2022/05/25 01:38:41;;;;;;;15.88;3.20;;;27.40;90.60;;;;;;5000020;28;20022;-45
2022/05/25 01:41:21;;;;;;;7.38;2.88;;;27.40;90.70;;;;;;4997776;28;20408;-53
2022/05/25 01:43:59;;;;;;;17.80;3.28;;;27.30;90.80;;;;;;5068234;28;20026;-46
2022/05/25 01:46:35;;;;;;;8.93;2.80;;;27.30;90.80;;;;;;5048419;28;20030;-50
2022/05/25 01:49:10;;;;;;;8.20;2.75;;;27.30;90.80;;;;;;5003949;28;20352;-50
2022/05/25 01:52:09;;;;;;;11.63;2.85;;;27.40;90.80;;;;;;5004149;28;20022;-55
2022/05/25 01:55:00;;;;;;;8.63;2.80;;;27.40;90.80;;;;;;5002661;28;20030;-49
2022/05/25 01:57:31;;;;;;;6.75;2.60;;;27.40;90.80;;;;;;4982762;28;20026;-49
2022/05/25 01:59:58;;;;;;;13.25;2.75;;;27.40;90.80;;;;;;4988570;28;20037;-52
2022/05/25 02:05:20;;;;;;;6.05;2.70;;;27.40;90.60;;;;;;5077420;28;20057;-48
2022/05/25 02:08:15;;;;;;;10.02;3.17;;;27.40;90.60;;;;;;4989992;28;20314;-48
2022/05/25 02:11:01;;;;;;;9.13;3.08;;;27.50;90.60;;;;;;5001703;28;20014;-52
2022/05/25 02:13:37;;;;;;;8.98;3.50;;;27.40;90.60;;;;;;5005233;28;20356;-45
2022/05/25 02:16:11;;;;;;;9.60;3.40;;;27.50;90.60;;;;;;5004556;28;20088;-50
2022/05/25 02:19:05;;;;;;;9.13;3.78;;;27.50;90.70;;;;;;5078698;28;20033;-46
2022/05/25 02:21:40;;;;;;;13.00;3.67;;;27.50;91.30;;;;;;5065980;28;20230;-45
2022/05/25 02:24:25;;;;;;;10.10;3.15;;;27.50;91.50;;;;;;5000267;28;20022;-46
2022/05/25 02:27:21;;;;;;;10.05;3.25;;;27.50;91.70;;;;;;4997680;28;20093;-52
2022/05/25 02:29:57;;;;;;;9.00;3.08;;;27.40;91.90;;;;;;4990292;28;20035;-48
2022/05/25 02:32:48;;;;;;;11.30;3.30;;;27.50;91.90;;;;;;5001797;28;20302;-53
2022/05/25 02:35:20;;;;;;;10.63;3.20;;;27.40;92.10;;;;;;5000759;28;20026;-45
2022/05/25 02:37:49;;;;;;;9.07;3.43;;;27.40;92.20;;;;;;5069018;28;20608;-48
2022/05/25 02:40:16;;;;;;;8.65;3.15;;;27.40;92.60;;;;;;5001030;28;20489;-57
2022/05/25 02:42:43;;;;;;;10.73;2.97;;;27.30;92.50;;;;;;5001314;28;20096;-44
2022/05/25 02:45:11;;;;;;;9.90;3.15;;;27.30;92.50;;;;;;5001823;28;20125;-53
2022/05/25 02:47:38;;;;;;;10.82;2.90;;;27.30;92.30;;;;;;5002666;28;20029;-46
2022/05/25 02:50:06;;;;;;;9.20;2.88;;;27.40;92.30;;;;;;5009516;28;20041;-53
2022/05/25 02:52:33;;;;;;;7.00;2.60;;;27.40;92.50;;;;;;5012573;28;20026;-50
2022/05/25 02:55:00;;;;;;;7.70;1.85;;;27.30;92.40;;;;;;5003924;28;20026;-46
2022/05/25 02:57:26;;;;;;;9.52;2.15;;;27.30;92.30;;;;;;5010507;28;20033;-47
2022/05/25 02:59:53;;;;;;;6.55;1.67;;;27.30;92.40;;;;;;4997884;28;20027;-58
2022/05/25 03:02:30;;;;;;;5.90;1.88;;;27.30;92.50;;;;;;4999664;28;20027;-50
2022/05/25 03:04:56;;;;;;;5.18;1.27;;;27.30;92.60;;;;;;5068441;28;20037;-49
2022/05/25 03:07:23;;;;;;;8.00;1.40;;;27.20;92.50;;;;;;4989321;28;20218;-50
2022/05/25 03:09:50;;;;;;;5.05;1.48;;;27.10;92.30;;;;;;4981924;28;20199;-51
2022/05/25 03:12:20;;;;;;;6.10;1.92;;;27.20;92.30;;;;;;4987765;28;20278;-52
2022/05/25 03:14:47;;;;;;;6.65;1.88;;;27.20;92.10;;;;;;4990359;28;20060;-55
2022/05/25 03:17:14;;;;;;;9.50;1.85;;;27.30;92.00;;;;;;4981278;28;20051;-52
2022/05/25 03:19:42;;;;;;;5.28;1.48;;;27.30;92.00;;;;;;5048125;28;20298;-48
2022/05/25 03:22:12;;;;;;;5.88;1.27;;;27.30;91.90;;;;;;4981327;28;20031;-53
2022/05/25 03:24:39;;;;;;;4.82;1.45;;;27.30;91.90;;;;;;4981551;28;20029;-49
2022/05/25 03:27:08;;;;;;;6.20;1.55;;;27.30;91.90;;;;;;4981257;28;20035;-53
2022/05/25 03:29:37;;;;;;;9.90;1.67;;;27.30;91.90;;;;;;4981742;28;20034;-51
2022/05/25 03:32:04;;;;;;;5.55;1.50;;;27.30;91.90;;;;;;4984720;28;20180;-51
2022/05/25 03:34:32;;;;;;;6.22;1.52;;;27.30;91.90;;;;;;5051524;28;20019;-49
2022/05/25 03:36:58;;;;;;;4.22;1.10;;;27.30;92.00;;;;;;4983774;28;20027;-48
2022/05/25 03:39:31;;;;;;;6.82;1.55;;;27.30;92.00;;;;;;4984604;28;20022;-56
2022/05/25 03:42:04;;;;;;;3.60;0.80;;;27.30;92.00;;;;;;4984361;28;20068;-53
2022/05/25 03:44:34;;;;;;;5.75;1.00;;;27.30;92.20;;;;;;4984859;28;20090;-50
2022/05/25 03:47:00;;;;;;;4.82;1.13;;;27.30;91.90;;;;;;4984412;28;20034;-48
2022/05/25 03:49:27;;;;;;;3.25;1.00;;;27.30;91.90;;;;;;4984417;28;20030;-45
2022/05/25 03:51:54;;;;;;;3.35;0.73;;;27.30;91.90;;;;;;4984230;28;20019;-57
2022/05/25 03:54:23;;;;;;;4.88;1.10;;;27.30;92.00;;;;;;4984459;28;20046;-52
2022/05/25 03:56:50;;;;;;;1.50;0.75;;;27.30;92.00;;;;;;4984062;28;20310;-55
2022/05/25 03:59:16;;;;;;;5.13;0.93;;;27.30;92.00;;;;;;4984629;28;20080;-52
2022/05/25 04:01:43;;;;;;;1.80;0.70;;;27.30;92.00;;;;;;4983972;28;20026;-55
2022/05/25 04:04:10;;;;;;;3.90;0.50;;;27.30;92.00;;;;;;4983977;28;20360;-53
2022/05/25 04:06:37;;;;;;;3.38;0.90;;;27.30;92.10;;;;;;4983910;28;20192;-55
2022/05/25 04:09:05;;;;;;;4.07;0.85;;;27.30;92.00;;;;;;4984099;28;20026;-54
2022/05/25 04:11:33;;;;;;;2.17;0.60;;;27.30;92.00;;;;;;4984053;28;20214;-47
2022/05/25 04:13:59;;;;;;;1.80;0.70;;;27.30;91.90;;;;;;4984222;28;20040;-50
2022/05/25 04:16:27;;;;;;;2.83;0.80;;;27.30;92.00;;;;;;4983824;28;20074;-46
2022/05/25 04:18:53;;;;;;;4.32;0.75;;;27.20;92.00;;;;;;4983498;28;20215;-50
2022/05/25 04:21:20;;;;;;;4.25;0.95;;;27.30;92.00;;;;;;4983731;28;20026;-54
2022/05/25 04:23:46;;;;;;;2.55;0.80;;;27.30;92.00;;;;;;4983763;28;20053;-52
2022/05/25 04:26:13;;;;;;;3.53;0.80;;;27.30;92.00;;;;;;4983662;28;20031;-46
2022/05/25 04:28:39;;;;;;;3.63;0.77;;;27.20;92.00;;;;;;4983789;28;20377;-48
2022/05/25 04:31:07;;;;;;;2.15;0.68;;;27.20;92.00;;;;;;4983453;28;20027;-53
2022/05/25 04:33:36;;;;;;;1.85;0.70;;;27.20;92.00;;;;;;4983456;28;20019;-51
2022/05/25 04:36:03;;;;;;;1.10;0.60;;;27.20;92.00;;;;;;4983557;28;20048;-54
2022/05/25 04:38:30;;;;;;;2.42;0.80;;;27.20;91.90;;;;;;4983117;28;20023;-49
2022/05/25 04:40:56;;;;;;;3.60;0.70;;;27.20;91.90;;;;;;4982921;28;20349;-53
2022/05/25 04:43:24;;;;;;;2.17;0.77;;;27.30;91.90;;;;;;4982882;28;20202;-52
2022/05/25 04:45:53;;;;;;;5.32;0.77;;;27.20;91.90;;;;;;4983222;28;20065;-52
2022/05/25 04:48:23;;;;;;;4.45;0.80;;;27.20;91.90;;;;;;4983641;28;20026;-49
2022/05/25 04:50:51;;;;;;;3.90;0.70;;;27.20;91.90;;;;;;4983344;28;20023;-50
2022/05/25 04:53:20;;;;;;;2.33;0.80;;;27.30;91.90;;;;;;4983332;28;20022;-58
2022/05/25 04:58:47;;;;;;;2.28;0.80;;;27.20;91.90;;;;;;4983438;28;20053;-52
2022/05/25 05:01:19;;;;;;;4.45;0.80;;;27.20;91.80;;;;;;4983122;28;20073;-52
2022/05/25 05:03:46;;;;;;;;;;;27.20;91.80;;;;;;4983459;28;20311;-51
2022/05/25 05:06:12;;;;;;;3.45;0.80;;;27.20;91.90;;;;;;4983171;28;19910;-50
2022/05/25 05:08:39;;;;;;;3.85;0.90;;;27.20;91.90;;;;;;4983308;28;20022;-48
2022/05/25 05:11:12;;;;;;;2.88;0.80;;;27.20;91.90;;;;;;4983375;28;20050;-58
2022/05/25 05:13:40;;;;;;;2.78;0.90;;;27.10;91.90;;;;;;4983240;28;20034;-53
2022/05/25 05:16:16;;;;;;;4.18;0.70;;;27.20;91.90;;;;;;4982903;28;20027;-51
2022/05/25 05:18:43;;;;;;;2.33;0.77;;;27.20;91.90;;;;;;4983211;28;20026;-48
2022/05/25 05:21:10;;;;;;;2.45;0.80;;;27.10;91.90;;;;;;4982833;28;20112;-47
2022/05/25 05:23:38;;;;;;;3.85;0.70;;;27.10;91.90;;;;;;4982917;28;20108;-52
2022/05/25 05:26:05;;;;;;;3.90;0.70;;;27.10;91.90;;;;;;4982722;28;20038;-50
2022/05/25 05:28:35;;;;;;;5.53;1.00;;;27.10;92.00;;;;;;4983027;28;20088;-55
2022/05/25 05:31:02;;;;;;;3.08;0.98;;;27.10;92.00;;;;;;4982878;28;20015;-48
2022/05/25 05:33:30;;;;;;;3.03;0.80;;;27.10;92.00;;;;;;4983140;28;20019;-49
2022/05/25 05:36:14;;;;;;;3.45;0.75;;;27.10;92.00;;;;;;4982831;28;20315;-57
2022/05/25 05:38:53;;;;;;;4.13;0.60;;;27.00;92.00;;;;;;4983303;28;20208;-52
2022/05/25 05:41:23;;;;;;;2.45;0.70;;;27.00;91.90;;;;;;4982412;28;20026;-53
2022/05/25 05:43:50;;;;;;;2.70;0.70;;;27.10;92.00;;;;;;4982651;28;20019;-50
2022/05/25 05:46:17;;;;;;;2.50;0.75;;;27.00;91.90;;;;;;4982272;28;20326;-47
2022/05/25 05:48:45;;;;;;;4.15;0.80;;;27.00;92.00;;;;;;4982427;28;20085;-51
2022/05/25 05:51:12;;;;;;;2.40;0.63;;;27.00;91.90;;;;;;4982994;28;20023;-50
2022/05/25 05:53:40;;;;;;;3.67;0.80;;;27.00;91.90;;;;;;4982260;28;20325;-51
2022/05/25 05:56:08;;;;;;;3.45;0.90;;;27.00;91.90;;;;;;4982722;28;20279;-52
2022/05/25 05:58:35;;;;;;;7.15;1.13;;;27.00;91.90;;;;;;4982695;28;20318;-62
2022/05/25 06:01:01;;;;;;;3.22;0.73;;;27.00;91.90;;;;;;4982927;28;20026;-48
2022/05/25 06:03:29;;;;;;;2.30;0.60;;;27.00;91.90;;;;;;4983081;28;20030;-48
2022/05/25 06:05:55;;;;;;;2.70;0.60;;;27.00;91.90;;;;;;4982490;28;20093;-51
2022/05/25 06:08:27;;;;;;;1.52;0.50;;;27.00;91.90;;;;;;4982329;28;20302;-50
2022/05/25 06:10:56;;;;;;;3.53;0.70;;;27.00;91.90;;;;;;4982494;28;20110;-48
2022/05/25 06:13:22;;;;;;;1.58;0.60;;;27.00;91.90;;;;;;4982471;28;20026;-48
2022/05/25 06:21:22;;;;;;;6.38;0.60;;;26.90;91.90;;;;;;4982625;28;20380;-47
2022/05/25 06:23:49;;;;;;;3.70;0.68;;;26.90;91.90;;;;;;4982291;28;20026;-53
2022/05/25 06:26:16;;;;;;;2.95;0.40;;;26.90;92.00;;;;;;4982347;28;20037;-49
2022/05/25 06:28:44;;;;;;;2.42;0.25;;;26.90;92.00;;;;;;4982257;28;20203;-50
2022/05/25 06:31:10;;;;;;;3.05;0.57;;;26.90;92.00;;;;;;4982543;28;20107;-50
2022/05/25 06:33:38;;;;;;;2.10;0.50;;;26.90;92.00;;;;;;4982176;28;20015;-49
2022/05/25 06:36:16;;;;;;;3.00;0.50;;;26.90;92.00;;;;;;4982537;28;20186;-47
2022/05/25 06:38:43;;;;;;;3.17;0.52;;;26.90;92.10;;;;;;4982025;28;20019;-52
2022/05/25 06:41:10;;;;;;;2.90;0.20;;;26.90;92.00;;;;;;4982219;28;20027;-48
2022/05/25 06:43:37;;;;;;;1.90;0.47;;;26.90;92.00;;;;;;4982305;28;20023;-49
2022/05/25 06:46:04;;;;;;;2.08;0.40;;;26.90;92.00;;;;;;4981872;28;20072;-47
2022/05/25 06:48:31;;;;;;;2.42;0.30;;;26.90;92.00;;;;;;4981791;28;20025;-50
2022/05/25 06:50:57;;;;;;;3.08;0.30;;;26.90;92.00;;;;;;4981697;28;20027;-50
2022/05/25 06:53:24;;;;;;;5.43;0.50;;;26.90;92.10;;;;;;4982567;28;20011;-51
2022/05/25 06:55:51;;;;;;;2.22;0.47;;;26.90;92.00;;;;;;4981799;28;20053;-52
2022/05/25 06:58:17;;;;;;;3.75;0.30;;;26.90;92.00;;;;;;4982107;28;20022;-52
2022/05/25 07:00:44;;;;;;;1.17;0.30;;;26.80;92.10;;;;;;4981864;28;20057;-53
2022/05/25 07:03:11;;;;;;;2.38;0.40;;;26.80;92.10;;;;;;4982033;28;20050;-49
2022/05/25 07:05:38;;;;;;;2.53;0.40;;;26.80;92.10;;;;;;4983516;28;20030;-55
2022/05/25 07:08:05;;;;;;;2.60;0.60;;;26.80;92.00;;;;;;4985154;28;20039;-57
2022/05/25 07:10:32;;;;;;;2.80;0.40;;;26.80;92.00;;;;;;4985115;28;20211;-48
2022/05/25 07:12:58;;;;;;;0.88;0.20;;;26.80;92.00;;;;;;4985279;28;20026;-53
2022/05/25 07:15:25;;;;;;;2.53;0.57;;;26.80;92.00;;;;;;4985303;28;20025;-50
2022/05/25 07:17:52;;;;;;;0.90;0.30;;;26.70;91.90;;;;;;4984862;28;20050;-53
2022/05/25 07:20:19;;;;;;;1.20;0.20;;;26.70;91.90;;;;;;4984701;28;20031;-46
2022/05/25 07:22:45;;;;;;;1.05;0.20;;;26.70;91.90;;;;;;4984939;28;20035;-55
2022/05/25 07:25:13;;;;;;;1.80;0.20;;;26.70;91.80;;;;;;4985040;28;20035;-46
2022/05/25 07:27:39;;;;;;;1.60;0.20;;;26.70;91.80;;;;;;4984797;28;20073;-53
2022/05/25 07:30:07;;;;;;;0.90;0.10;;;26.70;91.80;;;;;;4984682;28;20145;-49
2022/05/25 07:32:34;;;;;;;2.42;0.30;;;26.70;91.80;;;;;;4984723;28;20215;-50
2022/05/25 07:35:04;;;;;;;1.55;0.20;;;26.60;91.80;;;;;;4984875;28;20023;-51
2022/05/25 07:37:38;;;;;;;0.65;0.13;;;26.60;91.80;;;;;;4984560;28;20035;-47
2022/05/25 07:40:08;;;;;;;1.85;0.20;;;26.60;91.80;;;;;;4985398;28;20060;-49
2022/05/25 07:42:35;;;;;;;0.98;0.20;;;26.70;91.80;;;;;;4985082;28;20031;-50
2022/05/25 07:45:03;;;;;;;1.10;0.10;;;26.60;91.80;;;;;;4985468;28;20057;-54
2022/05/25 07:47:31;;;;;;;1.05;0.20;;;26.60;91.90;;;;;;4984812;28;20203;-52
2022/05/25 07:49:58;;;;;;;0.73;0.10;;;26.60;91.80;;;;;;4984878;28;20045;-52
2022/05/25 07:52:29;;;;;;;2.40;0.32;;;26.60;91.80;;;;;;4984541;28;20098;-48
2022/05/25 07:54:56;;;;;;;0.95;0.10;;;26.60;91.80;;;;;;4985043;28;20019;-51
2022/05/25 07:57:23;;;;;;;0.43;0.10;;;26.60;91.90;;;;;;4984500;28;20118;-49
2022/05/25 07:59:50;;;;;;;4.55;0.30;;;26.60;91.90;;;;;;4985044;28;20027;-58
2022/05/25 08:07:53;;;;;;;2.10;0.20;;;26.60;91.90;;;;;;4983995;28;20026;-56
2022/05/25 08:10:23;;;;;;;6.15;0.30;;;26.60;91.90;;;;;;4984462;28;20034;-48
2022/05/25 08:12:53;;;;;;;3.35;0.30;;;26.60;91.90;;;;;;4984319;28;20017;-49
2022/05/25 08:15:20;;;;;;;1.80;0.20;;;26.60;91.80;;;;;;4984448;28;20027;-50
2022/05/25 08:17:46;;;;;;;1.42;0.28;;;26.60;91.90;;;;;;4983600;28;20085;-47
2022/05/25 08:20:13;;;;;;;1.70;0.25;;;26.60;91.90;;;;;;4984031;28;20315;-55
2022/05/25 08:22:40;;;;;;;2.35;0.20;;;26.60;91.90;;;;;;4984117;28;20027;-48
2022/05/25 08:25:08;;;;;;;4.72;0.30;;;26.60;91.90;;;;;;4983875;28;20315;-50
2022/05/25 08:27:45;;;;;;;2.72;0.32;;;26.60;91.90;;;;;;4983763;28;20030;-49
2022/05/25 08:30:18;;;;;;;2.10;0.32;;;26.60;91.90;;;;;;4983953;28;20296;-48
2022/05/25 08:32:45;;;;;;;4.63;0.60;;;26.60;91.90;;;;;;4983677;28;20214;-51
2022/05/25 08:35:13;;;;;;;1.80;0.30;;;26.60;91.90;;;;;;4983570;28;20027;-52
2022/05/25 08:37:41;;;;;;;2.22;0.30;;;26.60;92.20;;;;;;4983781;28;20037;-49
2022/05/25 08:40:10;;;;;;;1.75;0.38;;;26.60;91.90;;;;;;4983884;28;20035;-48
2022/05/25 08:42:59;;;;;;;2.63;0.50;;;26.60;91.90;;;;;;4983490;28;20029;-52
2022/05/25 08:45:33;;;;;;;2.00;0.30;;;26.60;92.00;;;;;;4984001;28;20026;-51
2022/05/25 08:48:05;;;;;;;0.75;0.20;;;26.60;92.00;;;;;;4983713;28;20034;-50
2022/05/25 08:50:32;;;;;;;1.40;0.10;;;26.60;92.00;;;;;;4983978;28;20055;-51
2022/05/25 08:53:00;;;;;;;4.15;0.40;;;26.60;92.00;;;;;;4983456;28;20018;-50
2022/05/25 08:55:58;;;;;;;1.08;0.20;;;26.60;91.90;;;;;;4983666;28;20094;-46
2022/05/25 08:58:29;;;;;;;3.47;0.30;;;26.60;91.90;;;;;;4984175;28;20025;-48
2022/05/25 09:01:01;;;;;;;6.40;0.40;;;26.60;91.90;;;;;;4983248;28;20090;-47
2022/05/25 09:03:34;;;;;;;1.98;0.30;;;26.60;91.90;;;;;;4983401;28;20046;-50
2022/05/25 09:06:07;;;;;;;;;;;26.50;91.90;;;;;;4983475;28;20084;-47
2022/05/25 09:09:12;;;;;;;3.40;0.28;;;26.50;91.90;;;;;;4983414;28;19962;-51
2022/05/25 09:11:58;;;;;;;3.38;0.32;;;26.50;91.90;;;;;;4983598;28;20204;-48
2022/05/25 09:14:49;;;;;;;1.75;0.20;;;26.50;91.90;;;;;;4983498;28;20023;-46
2022/05/25 09:17:32;;;;;;;2.63;0.30;;;26.50;91.90;;;;;;4982783;28;20074;-56
2022/05/25 09:20:02;;;;;;;1.60;0.22;;;26.50;91.90;;;;;;4983530;28;20025;-50
2022/05/25 09:22:32;;;;;;;3.25;0.20;;;26.50;91.90;;;;;;4982888;28;20027;-49
2022/05/25 09:25:02;;;;;;;1.55;0.10;;;26.50;91.90;;;;;;4983481;28;20030;-53
2022/05/25 09:28:03;;;;;;;2.80;0.22;;;26.50;91.80;;;;;;4982261;28;20031;-46
2022/05/25 09:30:33;;;;;;;3.08;0.28;;;26.50;91.80;;;;;;4986881;28;20035;-56
2022/05/25 09:33:20;;;;;;;1.05;0.20;;;26.50;91.80;;;;;;4982733;28;20019;-51
2022/05/25 09:35:54;;;;;;;1.00;0.20;;;26.50;91.80;;;;;;4982840;28;20211;-50
2022/05/25 09:38:45;;;;;;;1.15;0.20;;;26.50;91.80;;;;;;4982744;28;20025;-49
2022/05/25 09:41:24;;;;;;;0.93;0.30;;;26.50;91.80;;;;;;4982868;28;20027;-46
2022/05/25 09:43:56;;;;;;;1.67;0.22;;;26.50;91.80;;;;;;4982721;28;20035;-53
2022/05/25 09:46:30;;;;;;;3.22;0.40;;;26.50;91.80;;;;;;4982544;28;20049;-48
2022/05/25 09:49:02;;;;;;;2.00;0.30;;;26.50;91.80;;;;;;4982713;28;20074;-46
2022/05/25 09:51:43;;;;;;;2.67;0.30;;;26.50;91.80;;;;;;4982617;28;20345;-50
2022/05/25 09:54:28;;;;;;;6.70;0.35;;;26.50;91.80;;;;;;4982742;28;20291;-50
2022/05/25 09:57:02;;;;;;;1.23;0.10;;;26.50;91.80;;;;;;4982546;28;20076;-48
2022/05/25 09:59:42;;;;;;;1.55;0.15;;;26.50;91.90;;;;;;4982827;28;20252;-48
2022/05/25 10:02:44;;;;;;;2.50;0.30;;;26.50;91.90;;;;;;4982578;28;20061;-51
2022/05/25 10:05:27;;;;;;;1.90;0.40;;;26.50;91.90;;;;;;4982347;28;20039;-53
2022/05/25 10:08:27;;;;;;;1.65;0.50;;;26.50;91.90;;;;;;4982091;28;20034;-55
2022/05/25 10:11:00;;;;;;;8.35;1.05;;;26.50;92.00;;;;;;4982290;28;20031;-52
2022/05/25 10:13:30;;;;;;;3.15;0.70;;;26.40;92.00;;;;;;4982560;28;20184;-49
2022/05/25 10:15:58;;;;;;;4.97;0.73;;;26.40;92.00;;;;;;5049169;28;20023;-48
2022/05/25 10:18:40;;;;;;;3.25;1.00;;;26.40;92.00;;;;;;4982347;28;20123;-52
2022/05/25 10:21:23;;;;;;;4.95;1.00;;;26.50;92.00;;;;;;4982603;28;20022;-50
2022/05/25 10:23:50;;;;;;;4.85;0.90;;;26.40;92.00;;;;;;4982337;28;20042;-47
2022/05/25 10:26:28;;;;;;;2.88;0.82;;;26.40;92.10;;;;;;4982149;28;20319;-53
2022/05/25 10:29:09;;;;;;;5.75;0.90;;;26.40;92.00;;;;;;4982266;28;20199;-48
2022/05/25 10:37:36;;;;;;;3.90;0.70;;;26.40;92.10;;;;;;4981903;28;20069;-51
2022/05/25 10:40:06;;;;;;;3.83;0.55;;;26.40;92.10;;;;;;5051634;28;20030;-52
2022/05/25 10:42:43;;;;;;;5.10;0.57;;;26.40;92.10;;;;;;4985257;28;20027;-47
2022/05/25 10:45:21;;;;;;;3.45;0.57;;;26.40;92.10;;;;;;4985409;28;20031;-50
2022/05/25 10:48:11;;;;;;;3.70;0.88;;;26.40;92.10;;;;;;4984954;28;20029;-50
2022/05/25 10:50:51;;;;;;;1.70;0.90;;;26.40;92.10;;;;;;4985479;28;20211;-47
2022/05/25 10:53:33;;;;;;;4.95;0.95;;;26.40;92.10;;;;;;4985580;28;20027;-50
2022/05/25 10:56:09;;;;;;;4.38;1.00;;;26.40;92.10;;;;;;4985475;28;20027;-56
2022/05/25 10:59:00;;;;;;;4.05;1.30;;;26.40;92.40;;;;;;4985717;28;20034;-52
2022/05/25 11:01:40;;;;;;;2.72;1.17;;;26.30;92.20;;;;;;4984980;28;20366;-53
2022/05/25 11:04:41;;;;;;;5.18;1.15;;;26.30;92.30;;;;;;4985501;28;20114;-51
2022/05/25 11:07:23;;;;;;;3.50;1.35;;;26.30;92.30;;;;;;4985056;28;20100;-49
2022/05/25 11:10:27;;;;;;;6.10;1.35;;;26.30;92.30;;;;;;4985546;28;20027;-53
2022/05/25 11:13:14;;;;;;;7.32;1.65;;;26.30;92.30;;;;;;4984923;28;20058;-52
2022/05/25 11:15:55;;;;;;;4.78;1.63;;;26.30;92.30;;;;;;4985171;28;20317;-52
2022/05/25 11:18:37;;;;;;;5.63;1.75;;;26.30;92.40;;;;;;4984750;28;20054;-54
2022/05/25 11:21:22;;;;;;;4.30;1.52;;;26.30;92.50;;;;;;4985226;28;20046;-54
2022/05/25 11:24:13;;;;;;;6.65;1.17;;;26.30;92.50;;;;;;4985162;28;20014;-56
2022/05/25 11:26:43;;;;;;;4.45;1.08;;;26.40;92.50;;;;;;4985438;28;20057;-53
2022/05/25 11:29:49;;;;;;;4.63;1.00;;;26.40;92.50;;;;;;4985368;28;20049;-51
2022/05/25 11:32:32;;;;;;;7.45;0.93;;;26.40;92.50;;;;;;4985523;28;20160;-49
2022/05/25 11:35:21;;;;;;;5.68;1.10;;;26.40;92.50;;;;;;4984465;28;20351;-48
2022/05/25 11:38:11;;;;;;;4.15;1.08;;;26.30;92.50;;;;;;4984883;28;20114;-50
2022/05/25 11:41:01;;;;;;;6.15;0.68;;;26.40;92.60;;;;;;4983731;28;20032;-57
2022/05/25 11:43:31;;;;;;;6.38;0.95;;;26.40;92.70;;;;;;4983190;28;20041;-51
2022/05/25 11:46:06;;;;;;;5.55;0.98;;;26.40;92.60;;;;;;4982890;28;20035;-47
2022/05/25 11:49:25;;;;;;;4.22;0.80;;;26.40;92.70;;;;;;4982744;28;20069;-51
2022/05/25 11:52:13;;;;;;;5.78;0.80;;;26.40;92.70;;;;;;5002482;28;20053;-55
2022/05/25 11:55:15;;;;;;;4.68;0.70;;;26.40;92.70;;;;;;5003159;28;20018;-53
2022/05/25 11:58:00;;;;;;;4.28;0.70;;;26.40;92.70;;;;;;4987203;28;20084;-52
2022/05/25 12:00:45;;;;;;;7.18;0.80;;;26.40;92.90;;;;;;4984494;28;20034;-48
2022/05/25 12:03:44;;;;;;;5.38;0.80;;;26.40;92.90;;;;;;4984708;28;20019;-54
2022/05/25 12:06:32;;;;;;;5.20;0.90;;;26.40;93.10;;;;;;4984717;28;20053;-49
2022/05/25 12:09:34;;;;;;;4.90;1.02;;;26.40;93.10;;;;;;4984279;28;20084;-51
2022/05/25 12:12:22;;;;;;;5.85;1.25;;;26.40;93.10;;;;;;4984609;28;20235;-49
2022/05/25 12:15:03;;;;;;;5.38;1.02;;;26.40;93.10;;;;;;4984584;28;20103;-49
2022/05/25 12:17:32;;;;;;;4.60;1.30;;;26.40;93.20;;;;;;4984170;28;20108;-52
2022/05/25 12:20:01;;;;;;;6.53;1.80;;;26.40;93.10;;;;;;4984875;28;20350;-51
2022/05/25 12:22:35;;;;;;;7.60;1.85;;;26.40;93.20;;;;;;4984546;28;20034;-52
2022/05/25 12:25:08;;;;;;;4.90;1.85;;;26.50;93.20;;;;;;4985140;28;20031;-49
2022/05/25 12:27:53;;;;;;;7.28;2.13;;;26.50;93.20;;;;;;4984448;28;20051;-50
2022/05/25 12:30:43;;;;;;;3.65;1.58;;;26.50;93.20;;;;;;4984301;28;20022;-48
2022/05/25 12:33:14;;;;;;;7.10;2.00;;;26.60;93.10;;;;;;4984605;28;20023;-49
2022/05/25 12:35:41;;;;;;;6.45;2.38;;;26.60;93.20;;;;;;4984452;28;20264;-48
2022/05/25 12:38:09;;;;;;;4.78;2.42;;;26.60;93.20;;;;;;4984398;28;20034;-51
2022/05/25 12:40:43;;;;;;;5.50;2.63;;;26.60;93.20;;;;;;4984327;28;20093;-55
2022/05/25 12:43:40;;;;;;;6.78;2.35;;;26.60;93.20;;;;;;4983963;28;20056;-49
2022/05/25 12:49:03;;;;;;;4.05;2.10;;;26.70;93.20;;;;;;4984048;28;20117;-48
2022/05/25 12:51:44;;;;;;;6.13;1.42;;;26.70;93.10;;;;;;4983897;28;20019;-51
2022/05/25 12:54:25;;;;;;;5.38;1.45;;;26.80;93.00;;;;;;4983788;28;20019;-51
2022/05/25 12:56:54;;;;;;;2.85;1.30;;;26.80;93.10;;;;;;4983851;28;20030;-51
2022/05/25 12:59:41;;;;;;;4.53;1.60;;;26.80;93.10;;;;;;4983907;28;20019;-50
2022/05/25 13:02:19;;;;;;;3.25;1.80;;;26.90;93.10;;;;;;4983899;28;20102;-52
2022/05/25 13:04:52;;;;;;;3.47;1.63;;;26.90;93.00;;;;;;4983937;28;20023;-52
2022/05/25 13:07:36;;;;;;;5.40;1.70;;;26.90;93.10;;;;;;4983568;28;20055;-50
2022/05/25 13:10:10;;;;;;;5.50;1.40;;;26.90;93.00;;;;;;4983960;28;20018;-50
2022/05/25 13:12:40;;;;;;;8.27;1.42;;;26.90;93.10;;;;;;4983759;28;20027;-49
2022/05/25 13:15:18;;;;;;;4.43;1.50;;;27.00;93.30;;;;;;4983235;28;20046;-54
2022/05/25 13:17:49;;;;;;;7.75;1.52;;;27.00;93.30;;;;;;4983805;28;20053;-57
2022/05/25 13:20:46;;;;;;;3.13;1.52;;;27.10;93.10;;;;;;4983603;28;20031;-53
2022/05/25 13:23:51;;;;;;;2.55;1.45;;;27.10;93.00;;;;;;4983649;28;20034;-50
2022/05/25 13:26:25;;;;;;;3.22;1.30;;;27.20;92.90;;;;;;4983209;28;20027;-48
2022/05/25 13:29:02;;;;;;;4.43;1.20;;;27.20;93.00;;;;;;4983213;28;20042;-58
2022/05/25 13:31:29;;;;;;;2.83;1.23;;;27.20;92.90;;;;;;4983169;28;20060;-50
2022/05/25 13:33:59;;;;;;;4.15;1.42;;;27.20;92.90;;;;;;4983343;28;20295;-50
2022/05/25 13:36:29;;;;;;;3.38;1.30;;;27.20;92.90;;;;;;4983152;28;20061;-53
2022/05/25 13:39:07;;;;;;;4.07;1.30;;;27.20;92.90;;;;;;5028705;28;20026;-64
2022/05/25 13:42:11;;;;;;;7.03;1.27;;;27.30;93.00;;;;;;5001668;28;20022;-65
2022/05/25 13:44:53;;;;;;;5.93;1.65;;;27.30;93.10;;;;;;5053374;28;20080;-65
2022/05/25 13:47:24;;;;;;;7.00;1.63;;;27.30;93.00;;;;;;5104569;28;20024;-65